Time;durP1;ratioP1;P1;durP2;ratioP2;P2;SDS_P1;SDS_P2;PMS_P1;PMS_P2;Temp;Humidity;BMP_temperature;BMP_pressure;BME280_temperature;BME280_humidity;BME280_pressure;Samples;Min_cycle;Max_cycle;Signal;HPM_P1;HPM_P2
2023/07/05 00:00:46;;;;;;;1.58;1.48;;;;;;;18.38;100.00;96320.66;5043774;28;20264;-58
2023/07/05 00:03:14;;;;;;;1.27;1.25;;;;;;;18.35;100.00;96318.38;5043537;28;20295;-57
2023/07/05 00:05:41;;;;;;;1.45;1.35;;;;;;;18.39;100.00;96324.97;5042475;28;20196;-58
2023/07/05 00:08:07;;;;;;;2.38;1.20;;;;;;;18.42;100.00;96320.03;5042314;28;20214;-58
2023/07/05 00:10:34;;;;;;;2.92;1.30;;;;;;;18.47;100.00;96323.97;5042307;28;20199;-58
2023/07/05 00:13:00;;;;;;;0.95;0.95;;;;;;;18.50;100.00;96319.03;5042680;28;20204;-58
2023/07/05 00:15:28;;;;;;;1.50;1.40;;;;;;;18.54;99.89;96317.66;5042359;28;20286;-58
2023/07/05 00:17:54;;;;;;;1.50;1.40;;;;;;;18.60;99.55;96316.03;5043072;28;20207;-57
2023/07/05 00:20:23;;;;;;;2.28;1.50;;;;;;;18.61;97.64;96315.00;5042270;28;20333;-58
2023/07/05 00:22:50;;;;;;;3.45;1.17;;;;;;;18.66;98.13;96313.38;5042533;28;20790;-57
2023/07/05 00:25:17;;;;;;;2.50;1.42;;;;;;;18.66;98.48;96308.03;5043423;28;20207;-59
2023/07/05 00:27:43;;;;;;;1.45;1.35;;;;;;;18.69;97.83;96296.91;5042605;28;20310;-57
2023/07/05 00:30:10;;;;;;;1.98;1.55;;;;;;;18.67;98.53;96298.94;5041660;28;20658;-58
2023/07/05 00:32:37;;;;;;;1.95;1.27;;;;;;;18.72;98.88;96295.66;5043281;28;20207;-58
2023/07/05 00:35:05;;;;;;;1.50;1.30;;;;;;;18.73;99.04;96287.44;5042994;28;20230;-59
2023/07/05 00:37:34;;;;;;;1.35;1.08;;;;;;;18.73;99.35;96290.13;5042836;28;20652;-58
2023/07/05 00:40:00;;;;;;;1.80;1.42;;;;;;;18.71;99.15;96276.09;5043041;28;20203;-58
2023/07/05 00:42:27;;;;;;;0.93;0.93;;;;;;;18.73;99.43;96276.72;5041747;28;20214;-56
2023/07/05 00:45:31;;;;;;;1.45;1.40;;;;;;;18.69;98.92;96267.44;5043078;28;20207;-58
2023/07/05 00:47:58;;;;;;;1.70;1.33;;;;;;;18.68;99.14;96267.63;5042736;28;20589;-57
2023/07/05 00:50:29;;;;;;;1.52;1.42;;;;;;;18.69;99.59;96259.41;5041141;28;20199;-58
2023/07/05 00:52:58;;;;;;;2.80;1.48;;;;;;;18.71;99.99;96249.28;5041583;28;20208;-58
2023/07/05 00:55:28;;;;;;;1.83;1.27;;;;;;;18.74;100.00;96256.91;5041634;28;20560;-57
2023/07/05 00:57:54;;;;;;;1.77;1.60;;;;;;;18.76;100.00;96259.41;5042237;28;20619;-58
2023/07/05 01:00:24;;;;;;;1.33;1.23;;;;;;;18.80;100.00;96242.72;5042070;28;20207;-58
2023/07/05 01:02:55;;;;;;;1.33;1.23;;;;;;;18.88;99.59;96247.09;5044907;28;20254;-58
2023/07/05 01:05:21;;;;;;;1.88;1.60;;;;;;;18.87;100.00;96248.09;5045229;28;20204;-59
2023/07/05 01:07:48;;;;;;;4.07;1.58;;;;;;;18.81;99.77;96247.03;5048392;28;20234;-59
2023/07/05 01:10:19;;;;;;;2.20;1.65;;;;;;;18.84;100.00;96249.34;5064460;28;20215;-58
2023/07/05 01:12:50;;;;;;;1.80;1.70;;;;;;;18.87;100.00;96243.56;5061654;28;20787;-58
2023/07/05 01:15:19;;;;;;;2.42;1.60;;;;;;;18.86;100.00;96244.59;5064826;28;20216;-58
2023/07/05 01:17:51;;;;;;;1.17;1.08;;;;;;;18.89;100.00;96252.22;5072789;28;20252;-58
2023/07/05 01:20:26;;;;;;;2.17;1.55;;;;;;;18.91;100.00;96268.09;5069594;28;20191;-58
2023/07/05 01:23:30;;;;;;;2.35;1.63;;;;;;;18.94;100.00;96326.63;5070761;28;20199;-59
2023/07/05 01:26:31;;;;;;;2.20;2.10;;;;;;;19.12;99.65;96367.09;5059316;28;20210;-58
2023/07/05 01:29:19;;;;;;;1.48;1.38;;;;;;;19.22;100.00;96355.97;5046872;28;20238;-58
2023/07/05 01:31:52;;;;;;;1.90;1.70;;;;;;;19.28;100.00;96364.03;5047801;28;20218;-59
2023/07/05 01:34:25;;;;;;;2.10;1.90;;;;;;;19.26;100.00;96362.59;5050158;28;20215;-58
2023/07/05 01:36:53;;;;;;;2.03;1.80;;;;;;;19.13;100.00;96352.63;5046230;28;20220;-59
2023/07/05 01:39:19;;;;;;;1.92;1.83;;;;;;;19.16;100.00;96359.47;5045533;28;20222;-58
2023/07/05 01:41:47;;;;;;;1.95;1.75;;;;;;;19.10;100.00;96347.69;5044544;28;20212;-58
2023/07/05 01:44:15;;;;;;;2.30;1.88;;;;;;;19.13;100.00;96349.16;5046349;28;20207;-58
2023/07/05 01:46:45;;;;;;;3.20;1.80;;;;;;;19.07;100.00;96348.09;5047301;28;20219;-57
2023/07/05 01:49:29;;;;;;;2.55;2.30;;;;;;;19.02;100.00;96360.47;5045649;28;20217;-58
2023/07/05 01:51:59;;;;;;;1.83;1.73;;;;;;;18.98;100.00;96352.00;5045100;28;20200;-59
2023/07/05 01:54:40;;;;;;;1.80;1.70;;;;;;;18.92;100.00;96370.75;5045665;28;20250;-59
2023/07/05 01:57:09;;;;;;;3.50;2.20;;;;;;;18.72;100.00;96379.53;5044947;28;20199;-58
2023/07/05 01:59:38;;;;;;;3.90;2.33;;;;;;;18.55;100.00;96386.25;5043839;28;20199;-58
2023/07/05 02:02:05;;;;;;;2.25;1.88;;;;;;;18.46;100.00;96384.72;5044313;28;20204;-58
2023/07/05 02:04:35;;;;;;;3.90;2.70;;;;;;;18.46;100.00;96384.72;5045030;28;20199;-58
2023/07/05 02:07:02;;;;;;;7.40;2.33;;;;;;;18.44;100.00;96378.75;5043801;28;20204;-62
2023/07/05 02:09:32;;;;;;;2.58;2.38;;;;;;;18.47;100.00;96383.72;5043636;28;20564;-59
2023/07/05 02:11:58;;;;;;;3.28;2.15;;;;;;;18.44;100.00;96384.09;5044458;28;20257;-59
2023/07/05 02:14:25;;;;;;;3.58;1.98;;;;;;;18.48;100.00;96380.00;5043376;28;20234;-58
2023/07/05 02:16:52;;;;;;;2.90;2.10;;;;;;;18.42;100.00;96369.28;5048621;28;20207;-58
2023/07/05 02:19:19;;;;;;;2.55;2.20;;;;;;;18.42;100.00;96372.78;5058776;28;20200;-60
2023/07/05 02:21:47;;;;;;;3.40;2.10;;;;;;;18.36;100.00;96361.00;5051558;28;20222;-58
2023/07/05 02:24:14;;;;;;;2.65;2.25;;;;;;;18.21;100.00;96364.84;5044817;28;20203;-58
2023/07/05 02:26:41;;;;;;;3.67;2.25;;;;;;;18.10;100.00;96365.38;5043290;28;20203;-58
2023/07/05 02:29:07;;;;;;;2.17;2.08;;;;;;;18.11;100.00;96369.69;5043173;28;20207;-59
2023/07/05 02:31:35;;;;;;;2.50;2.30;;;;;;;17.96;100.00;96371.69;5043492;28;20196;-58
2023/07/05 02:34:01;;;;;;;2.10;1.90;;;;;;;17.88;100.00;96400.22;5046325;28;20531;-58
2023/07/05 02:36:28;;;;;;;3.17;2.00;;;;;;;17.85;100.00;96400.59;5055035;28;20204;-58
2023/07/05 02:38:55;;;;;;;2.42;2.22;;;;;;;17.77;100.00;96384.69;5060514;28;20203;-58
2023/07/05 02:41:22;;;;;;;3.67;2.30;;;;;;;17.82;100.00;96390.28;5044731;28;20589;-59
2023/07/05 02:43:50;;;;;;;2.60;2.40;;;;;;;17.84;100.00;96382.06;5043661;28;20211;-58
2023/07/05 02:46:17;;;;;;;2.35;1.90;;;;;;;17.89;100.00;96376.94;5043464;28;20653;-57
2023/07/05 02:48:45;;;;;;;2.58;2.38;;;;;;;17.92;100.00;96380.06;5042855;28;20200;-58
2023/07/05 02:51:11;;;;;;;2.13;2.00;;;;;;;17.95;100.00;96389.56;5043602;28;20616;-59
2023/07/05 02:53:37;;;;;;;2.53;2.20;;;;;;;17.94;100.00;96381.72;5047370;28;20204;-58
2023/07/05 02:56:05;;;;;;;2.13;1.92;;;;;;;17.86;100.00;96386.19;5046471;28;20525;-59
2023/07/05 02:58:32;;;;;;;2.15;2.05;;;;;;;17.78;100.00;96397.03;5048974;28;20233;-59
2023/07/05 03:00:59;;;;;;;2.88;2.67;;;;;;;17.74;100.00;96395.78;5047165;28;20207;-58
2023/07/05 03:03:26;;;;;;;2.60;2.40;;;;;;;17.75;100.00;96396.59;5045693;28;20234;-58
2023/07/05 03:05:56;;;;;;;2.80;2.30;;;;;;;17.79;100.00;96406.72;5042403;28;20278;-60
2023/07/05 03:08:25;;;;;;;3.10;2.30;;;;;;;17.84;100.00;96400.81;5042879;28;20199;-60
2023/07/05 03:10:53;;;;;;;2.40;2.30;;;;;;;17.88;100.00;96389.53;5043022;28;20611;-59
2023/07/05 03:13:21;;;;;;;2.42;2.22;;;;;;;17.88;100.00;96378.00;5043031;28;20230;-59
2023/07/05 03:15:47;;;;;;;2.72;2.58;;;;;;;17.92;100.00;96385.41;5042066;28;20226;-59
2023/07/05 03:18:14;;;;;;;2.03;1.80;;;;;;;17.90;100.00;96390.16;5047008;28;20265;-59
2023/07/05 03:20:40;;;;;;;2.58;2.38;;;;;;;17.92;100.00;96390.75;5046833;28;20204;-58
2023/07/05 03:23:06;;;;;;;2.80;2.17;;;;;;;17.92;100.00;96387.28;5045524;28;20211;-58
2023/07/05 03:25:33;;;;;;;3.35;2.53;;;;;;;17.90;100.00;96382.13;5041932;28;20203;-59
2023/07/05 03:27:59;;;;;;;3.13;2.38;;;;;;;17.87;100.00;96387.88;5041974;28;20211;-58
2023/07/05 03:30:27;;;;;;;2.33;2.22;;;;;;;17.86;100.00;96388.88;5042831;28;20200;-58
2023/07/05 03:32:55;;;;;;;2.17;2.08;;;;;;;17.88;100.00;96394.88;5041979;28;20214;-58
2023/07/05 03:35:22;;;;;;;2.63;2.35;;;;;;;17.88;100.00;96399.41;5042442;28;20534;-59
2023/07/05 03:37:48;;;;;;;2.63;2.28;;;;;;;17.90;100.00;96403.53;5041975;28;20521;-60
2023/07/05 03:40:14;;;;;;;2.60;2.30;;;;;;;17.92;100.00;96398.78;5041827;28;20662;-59
2023/07/05 03:42:41;;;;;;;2.53;2.28;;;;;;;17.84;100.00;96404.31;5041954;28;20203;-58
2023/07/05 03:45:08;;;;;;;2.53;2.33;;;;;;;17.88;100.00;96402.91;5042371;28;20215;-58
2023/07/05 03:47:36;;;;;;;2.47;2.33;;;;;;;17.85;100.00;96405.13;5041821;28;20203;-58
2023/07/05 03:50:02;;;;;;;3.53;2.50;;;;;;;17.88;100.00;96408.25;5042789;28;20203;-58
2023/07/05 03:52:29;;;;;;;6.35;3.72;;;;;;;17.77;100.00;96411.44;5041703;28;20227;-59
2023/07/05 03:54:58;;;;;;;3.05;2.83;;;;;;;17.80;100.00;96407.56;5041525;28;20235;-59
2023/07/05 03:57:24;;;;;;;3.75;2.50;;;;;;;17.81;100.00;96414.56;5041193;28;20343;-58
2023/07/05 03:59:51;;;;;;;2.50;2.30;;;;;;;17.80;100.00;96407.56;5042554;28;20200;-57
2023/07/05 04:02:17;;;;;;;3.10;2.90;;;;;;;17.82;100.00;96406.31;5041697;28;21387;-59
2023/07/05 04:04:45;;;;;;;2.40;2.20;;;;;;;17.82;100.00;96403.66;5042507;28;20196;-60
2023/07/05 04:07:12;;;;;;;3.97;2.38;;;;;;;17.81;100.00;96414.56;5041931;28;20234;-59
2023/07/05 04:09:39;;;;;;;2.67;2.47;;;;;;;17.80;100.00;96428.94;5042214;28;20269;-59
2023/07/05 04:12:06;;;;;;;3.50;2.10;;;;;;;17.78;100.00;96426.47;5041567;28;20208;-58
2023/07/05 04:14:32;;;;;;;2.58;2.38;;;;;;;17.78;100.00;96418.44;5040920;28;20212;-60
2023/07/05 04:16:59;;;;;;;2.53;2.42;;;;;;;17.76;100.00;96415.13;5041313;28;20192;-59
2023/07/05 04:19:25;;;;;;;3.25;2.20;;;;;;;17.68;100.00;96420.63;5041361;28;20242;-58
2023/07/05 04:21:53;;;;;;;2.30;2.10;;;;;;;17.73;100.00;96412.03;5041382;28;20210;-59
2023/07/05 04:24:19;;;;;;;2.20;2.10;;;;;;;17.65;100.00;96431.69;5041741;28;20202;-58
2023/07/05 04:26:46;;;;;;;2.67;2.25;;;;;;;17.67;100.00;96421.66;5041125;28;20212;-60
2023/07/05 04:29:12;;;;;;;4.63;3.55;;;;;;;17.69;100.00;96422.28;5041041;28;20318;-58
2023/07/05 04:31:39;;;;;;;3.33;2.67;;;;;;;17.71;100.00;96432.78;5041620;28;20748;-59
2023/07/05 04:34:05;;;;;;;3.35;2.58;;;;;;;17.75;100.00;96432.19;5042717;28;20203;-59
2023/07/05 04:36:31;;;;;;;2.70;2.50;;;;;;;17.79;100.00;96432.63;5043289;28;20234;-58
2023/07/05 04:39:00;;;;;;;3.58;2.33;;;;;;;17.82;100.00;96442.94;5045347;28;20234;-57
2023/07/05 04:41:27;;;;;;;2.72;2.28;;;;;;;17.88;100.00;96445.72;5045982;28;20573;-59
2023/07/05 04:43:53;;;;;;;2.70;2.50;;;;;;;17.93;100.00;96450.47;5045361;28;20391;-59
2023/07/05 04:46:20;;;;;;;2.83;2.53;;;;;;;17.96;100.00;96434.00;5045533;28;20199;-58
2023/07/05 04:48:47;;;;;;;2.67;2.47;;;;;;;18.02;100.00;96433.25;5045897;28;20203;-58
2023/07/05 04:51:13;;;;;;;2.33;2.13;;;;;;;18.05;100.00;96442.72;5044788;28;20576;-58
2023/07/05 04:53:40;;;;;;;2.95;2.60;;;;;;;18.06;100.00;96447.06;5045040;28;20196;-58
2023/07/05 04:56:12;;;;;;;2.35;2.20;;;;;;;18.06;100.00;96445.22;5045557;28;20227;-58
2023/07/05 04:58:38;;;;;;;2.80;2.40;;;;;;;18.11;100.00;96445.47;5045434;28;20276;-58
2023/07/05 05:01:07;;;;;;;2.33;2.22;;;;;;;18.11;100.00;96444.63;5044634;28;20587;-59
2023/07/05 05:03:34;;;;;;;2.50;2.30;;;;;;;18.14;100.00;96444.25;5045674;28;20230;-58
2023/07/05 05:06:01;;;;;;;3.70;2.28;;;;;;;18.16;100.00;96434.19;5045083;28;20591;-58
2023/07/05 05:08:27;;;;;;;3.30;2.50;;;;;;;18.13;100.00;96429.22;5045180;28;20222;-58
2023/07/05 05:10:55;;;;;;;2.58;2.35;;;;;;;18.20;100.00;96443.47;5045267;28;20203;-59
2023/07/05 05:13:23;;;;;;;2.40;2.30;;;;;;;18.25;100.00;96449.06;5046362;28;20281;-58
2023/07/05 05:15:50;;;;;;;3.08;2.40;;;;;;;18.23;100.00;96448.44;5045013;28;20231;-58
2023/07/05 05:18:18;;;;;;;2.92;2.47;;;;;;;18.23;100.00;96456.47;5045513;28;20329;-58
2023/07/05 05:20:44;;;;;;;2.47;2.38;;;;;;;18.26;100.00;96453.41;5045710;28;20219;-57
2023/07/05 05:23:11;;;;;;;2.88;2.55;;;;;;;18.30;100.00;96451.97;5044199;28;20195;-58
2023/07/05 05:25:39;;;;;;;3.42;2.50;;;;;;;18.30;100.00;96458.16;5045545;28;20203;-58
2023/07/05 05:28:06;;;;;;;3.95;2.60;;;;;;;18.34;100.00;96447.91;5043528;28;20211;-58
2023/07/05 05:30:35;;;;;;;3.33;2.70;;;;;;;18.39;100.00;96450.78;5044233;28;20211;-57
2023/07/05 05:33:01;;;;;;;2.80;2.60;;;;;;;18.36;100.00;96445.84;5045663;28;20229;-58
2023/07/05 05:35:28;;;;;;;2.97;2.50;;;;;;;18.39;100.00;96446.28;5046874;28;20236;-58
2023/07/05 05:37:55;;;;;;;3.13;2.53;;;;;;;18.45;100.00;96444.69;5045245;28;20287;-57
2023/07/05 05:40:22;;;;;;;2.47;2.28;;;;;;;18.52;100.00;96444.75;5044514;28;20208;-58
2023/07/05 05:42:48;;;;;;;3.97;2.47;;;;;;;18.61;100.00;96444.38;5044352;28;20613;-58
2023/07/05 05:45:15;;;;;;;3.15;2.55;;;;;;;18.64;100.00;96438.63;5045236;28;20208;-60
2023/07/05 05:47:43;;;;;;;3.08;2.55;;;;;;;18.72;100.00;96441.16;5042833;28;20596;-56
2023/07/05 05:50:11;;;;;;;3.70;2.60;;;;;;;18.79;100.00;96447.38;5044437;28;20594;-55
2023/07/05 05:52:37;;;;;;;2.78;2.63;;;;;;;18.85;100.00;96441.19;5044227;28;20489;-55
2023/07/05 05:55:04;;;;;;;2.95;2.40;;;;;;;19.04;100.00;96447.69;5044352;28;20203;-56
2023/07/05 05:57:31;;;;;;;2.80;2.60;;;;;;;19.18;100.00;96445.88;5047604;28;20266;-56
2023/07/05 05:59:57;;;;;;;3.33;2.20;;;;;;;19.24;100.00;96447.72;5052632;28;20195;-56
2023/07/05 06:02:24;;;;;;;2.50;2.33;;;;;;;19.33;100.00;96454.59;5048619;28;20203;-57
2023/07/05 06:04:52;;;;;;;3.08;2.50;;;;;;;19.36;100.00;96448.81;5043974;28;20207;-55
2023/07/05 06:07:19;;;;;;;3.05;2.70;;;;;;;19.36;100.00;96446.13;5045816;28;20589;-56
2023/07/05 06:09:47;;;;;;;3.15;2.20;;;;;;;19.48;100.00;96449.91;5052169;28;20621;-56
2023/07/05 06:12:14;;;;;;;3.97;2.40;;;;;;;19.75;100.00;96459.66;5047529;28;20281;-56
2023/07/05 06:14:40;;;;;;;2.50;2.30;;;;;;;19.96;100.00;96458.63;5044147;28;20211;-56
2023/07/05 06:17:07;;;;;;;2.97;2.72;;;;;;;20.09;100.00;96453.25;5048154;28;20211;-56
2023/07/05 06:19:35;;;;;;;2.53;2.15;;;;;;;20.18;100.00;96449.34;5050232;28;20229;-55
2023/07/05 06:22:03;;;;;;;2.85;2.28;;;;;;;20.26;100.00;96459.06;5048726;28;20636;-56
2023/07/05 06:24:32;;;;;;;2.92;2.67;;;;;;;20.29;100.00;96456.00;5052551;28;20213;-55
2023/07/05 06:26:58;;;;;;;2.60;2.40;;;;;;;20.35;100.00;96453.28;5054218;28;20203;-57
2023/07/05 06:29:25;;;;;;;2.85;2.65;;;;;;;20.37;100.00;96452.25;5056147;28;20210;-56
2023/07/05 06:31:52;;;;;;;2.85;2.65;;;;;;;20.43;100.00;96449.56;5044118;28;20208;-57
2023/07/05 06:34:18;;;;;;;2.80;2.60;;;;;;;20.48;100.00;96448.91;5043263;28;20207;-56
2023/07/05 06:36:45;;;;;;;2.33;2.20;;;;;;;20.54;100.00;96454.31;5043683;28;20223;-56
2023/07/05 06:39:13;;;;;;;3.65;2.80;;;;;;;20.58;100.00;96458.19;5042901;28;20204;-56
2023/07/05 06:41:39;;;;;;;3.03;2.83;;;;;;;20.56;100.00;96456.75;5043102;28;20214;-58
2023/07/05 06:44:06;;;;;;;2.42;2.22;;;;;;;20.50;100.00;96463.81;5042770;28;20212;-55
2023/07/05 06:46:32;;;;;;;2.58;2.40;;;;;;;20.54;100.00;96466.91;5044771;28;20214;-56
2023/07/05 06:48:59;;;;;;;4.15;2.30;;;;;;;20.56;100.00;96465.66;5043174;28;20215;-56
2023/07/05 06:51:27;;;;;;;2.20;2.10;;;;;;;20.55;100.00;96466.69;5043532;28;20218;-56
2023/07/05 06:53:54;;;;;;;2.47;2.30;;;;;;;20.54;100.00;96466.91;5043681;28;20651;-56
2023/07/05 06:56:22;;;;;;;2.92;2.72;;;;;;;20.49;100.00;96464.84;5043080;28;20223;-54
2023/07/05 06:58:48;;;;;;;3.95;2.88;;;;;;;20.52;100.00;96467.09;5043447;28;20210;-55
2023/07/05 07:01:14;;;;;;;4.22;2.83;;;;;;;20.55;100.00;96468.53;5043238;28;20203;-55
2023/07/05 07:03:41;;;;;;;2.92;2.72;;;;;;;20.46;100.00;96473.31;5042056;28;20254;-55
2023/07/05 07:06:08;;;;;;;3.80;2.75;;;;;;;20.47;100.00;96474.16;5043541;28;20200;-55
2023/07/05 07:08:38;;;;;;;2.83;2.60;;;;;;;20.49;100.00;96472.91;5043413;28;20199;-55
2023/07/05 07:11:06;;;;;;;3.08;2.78;;;;;;;20.47;100.00;96480.34;5045037;28;20215;-56
2023/07/05 07:13:34;;;;;;;2.70;2.50;;;;;;;20.49;100.00;96489.00;5042426;28;20207;-56
2023/07/05 07:16:02;;;;;;;3.38;2.40;;;;;;;20.53;100.00;96490.25;5043340;28;20259;-56
2023/07/05 07:18:29;;;;;;;3.05;2.47;;;;;;;20.52;100.00;96491.28;5042150;28;20203;-56
2023/07/05 07:20:55;;;;;;;3.70;2.58;;;;;;;20.47;100.00;96496.47;5042343;28;20273;-58
2023/07/05 07:23:22;;;;;;;2.90;2.70;;;;;;;20.46;100.00;96486.75;5043373;28;20207;-56
2023/07/05 07:25:58;;;;;;;3.22;2.80;;;;;;;20.44;100.00;96499.53;5043325;28;20632;-57
2023/07/05 07:28:24;;;;;;;3.22;2.92;;;;;;;20.39;100.00;96495.84;5042402;28;20628;-56
2023/07/05 07:30:52;;;;;;;2.90;2.60;;;;;;;20.36;100.00;96497.09;5042071;28;20643;-57
2023/07/05 07:33:18;;;;;;;3.13;2.92;;;;;;;20.34;100.00;96496.47;5043124;28;20206;-54
2023/07/05 07:35:47;;;;;;;3.30;3.10;;;;;;;20.19;100.00;96495.84;5042652;28;20250;-55
2023/07/05 07:38:13;;;;;;;5.25;3.20;;;;;;;20.15;100.00;96513.38;5041718;28;20601;-57
2023/07/05 07:40:40;;;;;;;5.22;3.08;;;;;;;20.03;100.00;96515.84;5046961;28;20207;-57
2023/07/05 07:43:07;;;;;;;3.65;3.30;;;;;;;19.82;100.00;96524.91;5051932;28;20219;-56
2023/07/05 07:45:33;;;;;;;4.88;3.03;;;;;;;19.72;100.00;96529.84;5042079;28;20286;-57
2023/07/05 07:48:02;;;;;;;3.38;3.17;;;;;;;19.70;100.00;96531.88;5040857;28;20589;-55
2023/07/05 07:50:29;;;;;;;3.33;3.03;;;;;;;19.67;100.00;96532.28;5042591;28;20200;-57
2023/07/05 07:52:55;;;;;;;3.58;3.22;;;;;;;19.77;100.00;96535.41;5043951;28;20551;-56
2023/07/05 07:55:22;;;;;;;3.60;3.30;;;;;;;19.90;100.00;96528.41;5042281;28;20202;-55
2023/07/05 07:57:48;;;;;;;4.13;3.08;;;;;;;19.99;100.00;96537.91;5042705;28;20242;-56
2023/07/05 08:00:19;;;;;;;3.60;2.97;;;;;;;20.06;100.00;96541.44;5043057;28;20199;-57
2023/07/05 08:02:45;;;;;;;3.38;3.10;;;;;;;20.06;100.00;96552.19;5041949;28;20237;-56
2023/07/05 08:05:18;;;;;;;3.58;3.28;;;;;;;19.90;100.00;96563.31;5042042;28;20233;-55
2023/07/05 08:07:44;;;;;;;3.15;2.88;;;;;;;19.77;100.00;96567.59;5043300;28;20605;-58
2023/07/05 08:10:11;;;;;;;5.13;3.03;;;;;;;19.59;100.00;96575.38;5041661;28;20267;-57
2023/07/05 08:12:38;;;;;;;2.97;2.67;;;;;;;19.50;100.00;96584.63;5042027;28;20581;-58
2023/07/05 08:15:08;;;;;;;6.18;2.63;;;;;;;19.24;100.00;96590.66;5041346;28;20689;-58
2023/07/05 08:17:35;;;;;;;2.63;1.95;;;;;;;19.05;100.00;96586.03;5041569;28;20234;-58
2023/07/05 08:20:03;;;;;;;2.25;2.05;;;;;;;18.85;100.00;96588.56;5041962;28;20278;-57
2023/07/05 08:22:31;;;;;;;2.10;1.90;;;;;;;18.80;100.00;96592.88;5042515;28;20207;-58
2023/07/05 08:24:58;;;;;;;2.30;1.45;;;;;;;18.61;100.00;96589.00;5042266;28;20204;-58
2023/07/05 08:27:24;;;;;;;2.17;1.75;;;;;;;18.62;100.00;96585.31;5043038;28;20203;-58
2023/07/05 08:29:51;;;;;;;1.70;1.60;;;;;;;18.70;100.00;96577.16;5042247;28;20195;-58
2023/07/05 08:32:19;;;;;;;1.67;1.58;;;;;;;18.86;100.00;96579.50;5040327;28;20265;-58
2023/07/05 08:34:46;;;;;;;3.42;1.58;;;;;;;19.04;100.00;96591.59;5042861;28;20207;-58
2023/07/05 08:37:12;;;;;;;2.30;1.70;;;;;;;19.09;100.00;96595.34;5041343;28;20602;-58
2023/07/05 08:39:40;;;;;;;2.70;1.38;;;;;;;19.09;100.00;96591.84;5041677;28;20204;-59
2023/07/05 08:42:30;;;;;;;1.40;1.30;;;;;;;18.89;100.00;96592.50;5041398;28;20207;-57
2023/07/05 08:45:03;;;;;;;1.48;1.38;;;;;;;19.24;100.00;96592.50;5041506;28;20438;-58
2023/07/05 08:47:42;;;;;;;1.55;1.45;;;;;;;19.22;100.00;96597.25;5041665;28;20261;-58
2023/07/05 08:50:14;;;;;;;1.23;1.23;;;;;;;19.55;100.00;96602.81;5040825;28;20211;-58
2023/07/05 08:52:43;;;;;;;2.13;1.05;;;;;;;19.80;100.00;96599.41;5040902;28;20199;-58
2023/07/05 08:55:14;;;;;;;1.50;1.40;;;;;;;19.92;100.00;96609.56;5043988;28;20310;-58
2023/07/05 08:57:45;;;;;;;1.60;1.50;;;;;;;19.97;100.00;96607.94;5043677;28;20219;-58
2023/07/05 09:00:15;;;;;;;1.63;1.35;;;;;;;19.79;100.00;96611.19;5046914;28;20215;-58
2023/07/05 09:02:42;;;;;;;1.63;1.52;;;;;;;19.75;100.00;96615.28;5046477;28;20687;-58
2023/07/05 09:05:15;;;;;;;1.92;1.73;;;;;;;19.71;100.00;96613.19;5042599;28;20577;-58
2023/07/05 09:07:46;;;;;;;2.03;1.40;;;;;;;19.65;100.00;96619.38;5041001;28;20191;-59
2023/07/05 09:10:18;;;;;;;1.80;1.70;;;;;;;19.47;100.00;96617.22;5041344;28;20585;-58
2023/07/05 09:12:51;;;;;;;1.40;1.35;;;;;;;19.35;100.00;96618.78;5039959;28;20546;-58
2023/07/05 09:15:21;;;;;;;1.83;1.70;;;;;;;19.47;100.00;96609.19;5040346;28;20203;-58
2023/07/05 09:17:54;;;;;;;1.80;1.40;;;;;;;19.65;100.00;96603.28;5041068;28;20230;-58
2023/07/05 09:20:35;;;;;;;1.60;1.50;;;;;;;19.74;100.00;96602.06;5040662;28;20200;-59
2023/07/05 09:23:04;;;;;;;1.52;1.42;;;;;;;19.78;100.00;96606.00;5042618;28;20196;-58
2023/07/05 09:25:34;;;;;;;2.05;1.92;;;;;;;19.91;100.00;96603.34;5045087;28;20211;-59
2023/07/05 09:28:08;;;;;;;1.70;1.30;;;;;;;20.15;100.00;96597.44;5043683;28;20204;-58
2023/07/05 09:30:37;;;;;;;2.45;1.65;;;;;;;20.51;100.00;96594.41;5043708;28;20219;-59
2023/07/05 09:33:08;;;;;;;1.63;1.52;;;;;;;20.46;100.00;96594.22;5044103;28;20195;-57
2023/07/05 09:35:36;;;;;;;1.63;1.33;;;;;;;20.80;100.00;96594.00;5043624;28;20204;-60
2023/07/05 09:38:10;;;;;;;1.20;1.10;;;;;;;20.94;100.00;96600.16;5044184;28;20686;-58
2023/07/05 09:40:42;;;;;;;1.58;1.48;;;;;;;21.36;100.00;96598.06;5043987;28;20187;-58
2023/07/05 09:43:13;;;;;;;1.50;1.40;;;;;;;21.77;100.00;96596.66;5043545;28;20187;-58
2023/07/05 09:45:40;;;;;;;1.25;1.02;;;;;;;22.28;99.23;96598.50;5044322;28;20278;-58
2023/07/05 09:48:10;;;;;;;1.60;1.50;;;;;;;22.64;94.81;96608.59;5044021;28;20200;-58
2023/07/05 09:50:36;;;;;;;1.40;1.30;;;;;;;22.76;93.00;96607.72;5045110;28;20212;-59
2023/07/05 09:53:19;;;;;;;1.45;1.30;;;;;;;22.60;90.08;96604.72;5053244;28;20212;-58
2023/07/05 09:56:08;;;;;;;1.38;1.13;;;;;;;22.01;87.04;96608.59;5050531;28;20211;-57
2023/07/05 09:58:35;;;;;;;1.80;1.55;;;;;;;22.01;88.65;96626.63;5044518;28;20196;-57
2023/07/05 10:01:04;;;;;;;1.33;1.13;;;;;;;21.66;85.76;96621.56;5043866;28;20207;-57
2023/07/05 10:03:35;;;;;;;2.55;1.25;;;;;;;21.18;84.55;96615.72;5044147;28;20573;-57
2023/07/05 10:06:07;;;;;;;1.13;1.13;;;;;;;21.41;90.51;96604.47;5044908;28;20510;-57
2023/07/05 10:08:44;;;;;;;1.58;1.45;;;;;;;21.47;90.37;96605.50;5053819;28;20183;-58
2023/07/05 10:11:22;;;;;;;1.50;1.40;;;;;;;21.87;92.00;96616.91;5063039;28;20519;-58
2023/07/05 10:14:06;;;;;;;1.50;1.40;;;;;;;21.89;91.41;96617.53;5050891;28;20587;-58
2023/07/05 10:16:48;;;;;;;1.40;1.30;;;;;;;21.74;94.41;96624.03;5043751;28;20191;-58
2023/07/05 10:19:28;;;;;;;1.60;1.50;;;;;;;21.28;92.82;96634.09;5043848;28;20199;-57
2023/07/05 10:22:01;;;;;;;1.55;1.45;;;;;;;21.20;94.51;96629.75;5044151;28;20229;-58
2023/07/05 10:24:29;;;;;;;2.20;1.75;;;;;;;21.13;96.01;96620.88;5044605;28;20199;-58
2023/07/05 10:27:08;;;;;;;1.50;1.30;;;;;;;20.85;97.83;96639.91;5049115;28;20202;-58
2023/07/05 10:29:36;;;;;;;1.50;1.40;;;;;;;20.57;97.74;96641.13;5050611;28;20234;-58
2023/07/05 10:32:02;;;;;;;2.72;1.55;;;;;;;20.72;100.00;96649.81;5048268;28;20231;-58
2023/07/05 10:34:29;;;;;;;2.05;1.85;;;;;;;20.58;100.00;96650.84;5043395;28;20568;-58
2023/07/05 10:36:55;;;;;;;1.83;1.73;;;;;;;20.39;100.00;96652.47;5043253;28;20230;-57
2023/07/05 10:39:24;;;;;;;2.63;1.60;;;;;;;20.32;100.00;96655.16;5043946;28;20204;-58
2023/07/05 10:41:53;;;;;;;1.90;1.80;;;;;;;20.36;100.00;96655.56;5046083;28;20230;-57
2023/07/05 10:44:26;;;;;;;1.75;1.65;;;;;;;20.32;100.00;96667.75;5045121;28;20222;-59
2023/07/05 10:46:53;;;;;;;1.60;1.50;;;;;;;20.46;100.00;96660.53;5050820;28;20224;-58
2023/07/05 10:49:20;;;;;;;2.40;2.30;;;;;;;20.46;100.00;96666.75;5053062;28;20199;-57
2023/07/05 10:51:51;;;;;;;1.88;1.77;;;;;;;20.18;100.00;96668.69;5053915;28;20191;-58
2023/07/05 10:54:23;;;;;;;2.03;1.92;;;;;;;20.09;100.00;96668.03;5047425;28;20211;-59
2023/07/05 10:56:50;;;;;;;3.17;2.50;;;;;;;20.12;100.00;96664.16;5044220;28;20226;-59
2023/07/05 10:59:27;;;;;;;2.08;1.98;;;;;;;20.24;100.00;96668.72;5043870;28;20211;-59
2023/07/05 11:01:59;;;;;;;1.90;1.80;;;;;;;20.30;100.00;96673.31;5044694;28;20202;-59
2023/07/05 11:04:29;;;;;;;2.40;2.20;;;;;;;20.45;100.00;96661.56;5044362;28;20226;-58
2023/07/05 11:07:00;;;;;;;2.00;1.90;;;;;;;20.36;100.00;96674.38;5044444;28;20191;-57
2023/07/05 11:09:28;;;;;;;2.08;1.98;;;;;;;20.52;100.00;96660.53;5043385;28;20198;-57
2023/07/05 11:11:58;;;;;;;2.22;2.08;;;;;;;20.58;99.28;96670.47;5044758;28;20544;-56
2023/07/05 11:14:29;;;;;;;2.30;1.90;;;;;;;20.66;98.08;96667.59;5044803;28;20520;-56
2023/07/05 11:16:57;;;;;;;2.25;2.05;;;;;;;20.62;98.78;96673.56;5044885;28;20219;-56
2023/07/05 11:19:28;;;;;;;3.00;2.28;;;;;;;20.53;97.45;96664.88;5043613;28;20202;-57
2023/07/05 11:21:55;;;;;;;2.25;2.15;;;;;;;20.56;99.64;96669.84;5045686;28;20257;-57
2023/07/05 11:24:44;;;;;;;2.40;2.20;;;;;;;20.51;99.19;96672.31;5044136;28;20203;-58
2023/07/05 11:27:57;;;;;;;2.60;2.40;;;;;;;20.39;100.00;96668.59;5043277;28;20287;-57
2023/07/05 11:30:45;;;;;;;4.53;2.50;;;;;;;20.27;100.00;96667.47;5030474;28;20628;-58
2023/07/05 11:33:17;;;;;;;3.97;2.50;;;;;;;20.25;100.00;96669.56;5042776;28;20642;-58
2023/07/05 11:35:46;;;;;;;2.78;2.30;;;;;;;20.24;100.00;96679.47;5043833;28;20210;-58